sensor_id;sensor_type;location;lat;lon;timestamp;pressure;altitude;pressure_sealevel;temperature;humidity
15932;BME280;8065;49.520;11.284;2023-02-11T00:00:46;99413.78;;;1.93;72.44
15932;BME280;8065;49.520;11.284;2023-02-11T00:03:12;99408.38;;;1.88;72.73
15932;BME280;8065;49.520;11.284;2023-02-11T00:05:39;99413.47;;;1.83;72.98
15932;BME280;8065;49.520;11.284;2023-02-11T00:08:05;99406.31;;;1.72;72.85
15932;BME280;8065;49.520;11.284;2023-02-11T00:10:33;99410.25;;;1.81;72.84
15932;BME280;8065;49.520;11.284;2023-02-11T00:12:59;99411.09;;;1.75;73.48
15932;BME280;8065;49.520;11.284;2023-02-11T00:15:26;99399.91;;;1.68;73.89
15932;BME280;8065;49.520;11.284;2023-02-11T00:17:52;99400.91;;;1.67;73.27
15932;BME280;8065;49.520;11.284;2023-02-11T00:20:19;99402.09;;;1.71;73.43
15932;BME280;8065;49.520;11.284;2023-02-11T00:22:46;99398.75;;;1.82;72.68
15932;BME280;8065;49.520;11.284;2023-02-11T00:25:12;99394.91;;;1.84;72.87
15932;BME280;8065;49.520;11.284;2023-02-11T00:27:40;99386.84;;;1.86;72.63
15932;BME280;8065;49.520;11.284;2023-02-11T00:30:08;99388.66;;;1.85;72.83
15932;BME280;8065;49.520;11.284;2023-02-11T00:32:36;99391.47;;;1.84;72.06
15932;BME280;8065;49.520;11.284;2023-02-11T00:35:02;99381.13;;;1.71;73.21
15932;BME280;8065;49.520;11.284;2023-02-11T00:37:29;99388.06;;;1.58;73.36
15932;BME280;8065;49.520;11.284;2023-02-11T00:39:55;99388.81;;;1.66;72.89
15932;BME280;8065;49.520;11.284;2023-02-11T00:42:22;99386.88;;;1.54;73.39
15932;BME280;8065;49.520;11.284;2023-02-11T00:44:49;99375.41;;;1.55;73.32
15932;BME280;8065;49.520;11.284;2023-02-11T00:47:16;99383.28;;;1.49;73.60
15932;BME280;8065;49.520;11.284;2023-02-11T00:49:42;99385.91;;;1.49;72.86
15932;BME280;8065;49.520;11.284;2023-02-11T00:52:09;99392.19;;;1.41;73.16
15932;BME280;8065;49.520;11.284;2023-02-11T00:54:35;99386.94;;;1.48;72.93
15932;BME280;8065;49.520;11.284;2023-02-11T00:57:02;99385.69;;;1.50;73.61
15932;BME280;8065;49.520;11.284;2023-02-11T00:59:28;99382.81;;;1.58;73.02
15932;BME280;8065;49.520;11.284;2023-02-11T01:01:56;99376.78;;;1.58;73.26
15932;BME280;8065;49.520;11.284;2023-02-11T01:04:23;99375.19;;;1.57;72.80
15932;BME280;8065;49.520;11.284;2023-02-11T01:06:49;99371.94;;;1.61;73.42
15932;BME280;8065;49.520;11.284;2023-02-11T01:09:16;99374.38;;;1.56;73.55
15932;BME280;8065;49.520;11.284;2023-02-11T01:11:43;99372.59;;;1.50;73.25
15932;BME280;8065;49.520;11.284;2023-02-11T01:14:10;99373.25;;;1.46;73.05
15932;BME280;8065;49.520;11.284;2023-02-11T01:16:36;99362.28;;;1.55;73.08
15932;BME280;8065;49.520;11.284;2023-02-11T01:19:04;99366.41;;;1.45;72.25
15932;BME280;8065;49.520;11.284;2023-02-11T01:21:31;99356.38;;;1.35;72.93
15932;BME280;8065;49.520;11.284;2023-02-11T01:23:57;99359.22;;;1.34;73.11
15932;BME280;8065;49.520;11.284;2023-02-11T01:26:24;99351.09;;;1.42;72.41
15932;BME280;8065;49.520;11.284;2023-02-11T01:28:50;99354.94;;;1.39;73.45
15932;BME280;8065;49.520;11.284;2023-02-11T01:31:17;99354.31;;;1.44;73.42
15932;BME280;8065;49.520;11.284;2023-02-11T01:33:43;99349.03;;;1.50;73.13
15932;BME280;8065;49.520;11.284;2023-02-11T01:36:11;99354.28;;;1.50;73.09
15932;BME280;8065;49.520;11.284;2023-02-11T01:38:38;99353.41;;;1.56;73.02
15932;BME280;8065;49.520;11.284;2023-02-11T01:41:06;99349.88;;;1.44;73.38
15932;BME280;8065;49.520;11.284;2023-02-11T01:43:35;99355.13;;;1.44;73.09
15932;BME280;8065;49.520;11.284;2023-02-11T01:46:12;99345.50;;;1.38;72.78
15932;BME280;8065;49.520;11.284;2023-02-11T01:48:42;99347.31;;;1.38;73.61
15932;BME280;8065;49.520;11.284;2023-02-11T01:51:14;99342.28;;;1.36;73.56
15932;BME280;8065;49.520;11.284;2023-02-11T01:53:42;99331.59;;;1.38;73.05
15932;BME280;8065;49.520;11.284;2023-02-11T01:56:27;99329.84;;;1.25;73.01
15932;BME280;8065;49.520;11.284;2023-02-11T01:59:17;99319.09;;;1.40;72.47
15932;BME280;8065;49.520;11.284;2023-02-11T02:01:49;99321.34;;;1.36;72.93
15932;BME280;8065;49.520;11.284;2023-02-11T02:04:18;99319.25;;;1.45;72.25
15932;BME280;8065;49.520;11.284;2023-02-11T02:06:49;99324.06;;;1.48;72.26
15932;BME280;8065;49.520;11.284;2023-02-11T02:09:21;99316.41;;;1.46;73.24
15932;BME280;8065;49.520;11.284;2023-02-11T02:11:49;99323.25;;;1.47;73.18
15932;BME280;8065;49.520;11.284;2023-02-11T02:14:17;99332.22;;;1.33;73.51
15932;BME280;8065;49.520;11.284;2023-02-11T02:16:43;99327.41;;;1.30;73.68
15932;BME280;8065;49.520;11.284;2023-02-11T02:19:29;99326.66;;;1.23;75.05
15932;BME280;8065;49.520;11.284;2023-02-11T02:25:11;99307.66;;;1.34;75.53
15932;BME280;8065;49.520;11.284;2023-02-11T02:27:52;99306.84;;;1.34;75.12
15932;BME280;8065;49.520;11.284;2023-02-11T02:33:29;99285.94;;;1.27;74.59
15932;BME280;8065;49.520;11.284;2023-02-11T02:36:07;99285.44;;;1.12;74.87
15932;BME280;8065;49.520;11.284;2023-02-11T02:38:37;99283.50;;;1.32;74.69
15932;BME280;8065;49.520;11.284;2023-02-11T02:41:08;99285.03;;;1.40;74.17
15932;BME280;8065;49.520;11.284;2023-02-11T02:43:38;99283.22;;;1.40;74.00
15932;BME280;8065;49.520;11.284;2023-02-11T02:46:13;99276.59;;;1.38;73.57
15932;BME280;8065;49.520;11.284;2023-02-11T02:48:43;99279.44;;;1.36;74.21
15932;BME280;8065;49.520;11.284;2023-02-11T02:51:24;99278.78;;;1.41;73.79
15932;BME280;8065;49.520;11.284;2023-02-11T02:53:58;99275.84;;;1.30;74.24
15932;BME280;8065;49.520;11.284;2023-02-11T02:56:35;99285.34;;;1.25;74.40
15932;BME280;8065;49.520;11.284;2023-02-11T02:59:16;99281.03;;;1.37;74.64
15932;BME280;8065;49.520;11.284;2023-02-11T03:01:55;99267.25;;;1.48;74.82
15932;BME280;8065;49.520;11.284;2023-02-11T03:04:28;99276.13;;;1.47;75.09
15932;BME280;8065;49.520;11.284;2023-02-11T03:07:02;99290.66;;;1.43;75.18
15932;BME280;8065;49.520;11.284;2023-02-11T03:09:38;99292.69;;;1.41;75.57
15932;BME280;8065;49.520;11.284;2023-02-11T03:12:06;99285.00;;;1.46;76.54
15932;BME280;8065;49.520;11.284;2023-02-11T03:14:34;99296.22;;;1.53;75.30
15932;BME280;8065;49.520;11.284;2023-02-11T03:17:03;99297.25;;;1.52;76.59
15932;BME280;8065;49.520;11.284;2023-02-11T03:19:35;99306.69;;;1.53;76.59
15932;BME280;8065;49.520;11.284;2023-02-11T03:22:06;99303.00;;;1.61;75.83
15932;BME280;8065;49.520;11.284;2023-02-11T03:24:36;99303.38;;;1.64;76.73
15932;BME280;8065;49.520;11.284;2023-02-11T03:27:09;99290.88;;;1.85;76.33
15932;BME280;8065;49.520;11.284;2023-02-11T03:29:42;99292.94;;;2.01;75.88
15932;BME280;8065;49.520;11.284;2023-02-11T03:32:14;99280.78;;;2.07;75.50
15932;BME280;8065;49.520;11.284;2023-02-11T03:34:48;99292.59;;;1.97;76.00
15932;BME280;8065;49.520;11.284;2023-02-11T03:37:21;99278.97;;;2.07;75.59
15932;BME280;8065;49.520;11.284;2023-02-11T03:39:52;99279.19;;;2.06;75.54
15932;BME280;8065;49.520;11.284;2023-02-11T03:42:20;99269.38;;;2.19;75.17
15932;BME280;8065;49.520;11.284;2023-02-11T03:44:51;99259.16;;;2.29;73.94
15932;BME280;8065;49.520;11.284;2023-02-11T03:47:22;99257.41;;;2.23;73.64
15932;BME280;8065;49.520;11.284;2023-02-11T03:49:53;99248.38;;;2.19;73.35
15932;BME280;8065;49.520;11.284;2023-02-11T03:52:21;99259.16;;;1.93;73.89
15932;BME280;8065;49.520;11.284;2023-02-11T03:54:53;99256.22;;;1.83;73.95
15932;BME280;8065;49.520;11.284;2023-02-11T03:57:21;99257.25;;;1.82;75.40
15932;BME280;8065;49.520;11.284;2023-02-11T03:59:49;99256.59;;;1.86;74.85
15932;BME280;8065;49.520;11.284;2023-02-11T04:02:16;99259.44;;;1.85;74.76
15932;BME280;8065;49.520;11.284;2023-02-11T04:04:42;99259.66;;;1.83;75.20
15932;BME280;8065;49.520;11.284;2023-02-11T04:07:11;99267.78;;;1.75;75.87
15932;BME280;8065;49.520;11.284;2023-02-11T04:09:38;99270.72;;;1.85;75.34
15932;BME280;8065;49.520;11.284;2023-02-11T04:12:05;99254.78;;;1.87;75.45
15932;BME280;8065;49.520;11.284;2023-02-11T04:14:31;99250.13;;;2.07;75.38
15932;BME280;8065;49.520;11.284;2023-02-11T04:16:58;99260.91;;;2.17;74.28
15932;BME280;8065;49.520;11.284;2023-02-11T04:19:24;99271.69;;;2.27;74.12
15932;BME280;8065;49.520;11.284;2023-02-11T04:21:51;99259.16;;;2.29;74.29
15932;BME280;8065;49.520;11.284;2023-02-11T04:24:19;99250.88;;;2.14;74.82
15932;BME280;8065;49.520;11.284;2023-02-11T04:26:45;99248.81;;;2.16;75.14
15932;BME280;8065;49.520;11.284;2023-02-11T04:29:12;99244.75;;;2.20;75.35
15932;BME280;8065;49.520;11.284;2023-02-11T04:31:38;99229.00;;;2.20;74.82
15932;BME280;8065;49.520;11.284;2023-02-11T04:34:05;99214.38;;;1.94;74.99
15932;BME280;8065;49.520;11.284;2023-02-11T04:36:31;99206.50;;;2.13;74.58
15932;BME280;8065;49.520;11.284;2023-02-11T04:38:58;99228.88;;;2.15;74.26
15932;BME280;8065;49.520;11.284;2023-02-11T04:41:26;99220.22;;;2.15;74.63
15932;BME280;8065;49.520;11.284;2023-02-11T04:43:52;99205.72;;;2.12;75.26
15932;BME280;8065;49.520;11.284;2023-02-11T04:46:19;99214.97;;;2.15;74.83
15932;BME280;8065;49.520;11.284;2023-02-11T04:48:45;99203.38;;;2.04;75.82
15932;BME280;8065;49.520;11.284;2023-02-11T04:51:12;99209.06;;;2.01;75.83
15932;BME280;8065;49.520;11.284;2023-02-11T04:53:39;99217.50;;;2.03;75.11
15932;BME280;8065;49.520;11.284;2023-02-11T04:56:06;99210.88;;;2.19;75.43
15932;BME280;8065;49.520;11.284;2023-02-11T04:58:33;99196.81;;;2.32;74.36
15932;BME280;8065;49.520;11.284;2023-02-11T05:01:05;99164.00;;;2.41;74.55
15932;BME280;8065;49.520;11.284;2023-02-11T05:03:31;99187.31;;;2.49;74.27
15932;BME280;8065;49.520;11.284;2023-02-11T05:05:58;99204.19;;;2.53;74.37
15932;BME280;8065;49.520;11.284;2023-02-11T05:08:24;99212.94;;;2.47;74.36
15932;BME280;8065;49.520;11.284;2023-02-11T05:10:51;99210.47;;;2.52;74.20
15932;BME280;8065;49.520;11.284;2023-02-11T05:13:18;99210.47;;;2.52;75.05
15932;BME280;8065;49.520;11.284;2023-02-11T05:15:45;99209.56;;;2.58;74.21
15932;BME280;8065;49.520;11.284;2023-02-11T05:18:12;99226.63;;;2.79;74.19
15932;BME280;8065;49.520;11.284;2023-02-11T05:20:40;99204.28;;;2.88;74.36
15932;BME280;8065;49.520;11.284;2023-02-11T05:23:07;99197.22;;;3.00;73.50
15932;BME280;8065;49.520;11.284;2023-02-11T05:25:34;99190.28;;;3.06;73.78
15932;BME280;8065;49.520;11.284;2023-02-11T05:28:00;99179.44;;;3.14;72.85
15932;BME280;8065;49.520;11.284;2023-02-11T05:30:27;99177.97;;;3.18;73.04
15932;BME280;8065;49.520;11.284;2023-02-11T05:32:55;99183.09;;;3.24;72.77
15932;BME280;8065;49.520;11.284;2023-02-11T05:35:22;99194.41;;;3.25;73.42
15932;BME280;8065;49.520;11.284;2023-02-11T05:40:28;99188.34;;;3.24;72.97
15932;BME280;8065;49.520;11.284;2023-02-11T05:42:54;99186.88;;;3.17;74.06
15932;BME280;8065;49.520;11.284;2023-02-11T05:45:21;99183.53;;;2.98;73.33
15932;BME280;8065;49.520;11.284;2023-02-11T05:47:47;99169.72;;;3.03;73.77
15932;BME280;8065;49.520;11.284;2023-02-11T05:50:15;99184.13;;;3.12;73.09
15932;BME280;8065;49.520;11.284;2023-02-11T05:52:42;99194.28;;;3.20;73.09
15932;BME280;8065;49.520;11.284;2023-02-11T05:55:08;99189.50;;;3.28;73.80
15932;BME280;8065;49.520;11.284;2023-02-11T05:57:35;99170.88;;;3.30;73.25
15932;BME280;8065;49.520;11.284;2023-02-11T06:00:03;99148.63;;;3.33;73.49
15932;BME280;8065;49.520;11.284;2023-02-11T06:02:29;99171.81;;;3.36;73.73
15932;BME280;8065;49.520;11.284;2023-02-11T06:04:56;99180.94;;;3.45;73.69
15932;BME280;8065;49.520;11.284;2023-02-11T06:07:24;99184.38;;;3.45;73.64
15932;BME280;8065;49.520;11.284;2023-02-11T06:09:50;99188.22;;;3.54;72.94
15932;BME280;8065;49.520;11.284;2023-02-11T06:12:17;99189.94;;;3.60;72.81
15932;BME280;8065;49.520;11.284;2023-02-11T06:14:43;99185.94;;;3.70;73.81
15932;BME280;8065;49.520;11.284;2023-02-11T06:17:10;99189.22;;;3.77;73.58
15932;BME280;8065;49.520;11.284;2023-02-11T06:19:36;99186.16;;;3.80;73.43
15932;BME280;8065;49.520;11.284;2023-02-11T06:22:03;99176.75;;;3.84;72.50
15932;BME280;8065;49.520;11.284;2023-02-11T06:24:31;99180.41;;;3.83;72.16
15932;BME280;8065;49.520;11.284;2023-02-11T06:26:57;99168.97;;;3.89;72.10
15932;BME280;8065;49.520;11.284;2023-02-11T06:29:24;99175.38;;;3.93;72.67
15932;BME280;8065;49.520;11.284;2023-02-11T06:31:50;99166.78;;;3.98;72.00
15932;BME280;8065;49.520;11.284;2023-02-11T06:34:16;99154.53;;;4.03;72.64
15932;BME280;8065;49.520;11.284;2023-02-11T06:36:43;99172.38;;;4.01;72.38
15932;BME280;8065;49.520;11.284;2023-02-11T06:39:11;99174.44;;;3.99;72.59
15932;BME280;8065;49.520;11.284;2023-02-11T06:41:39;99177.53;;;3.96;72.88
15932;BME280;8065;49.520;11.284;2023-02-11T06:44:05;99177.53;;;3.96;72.44
15932;BME280;8065;49.520;11.284;2023-02-11T06:46:32;99173.88;;;3.97;72.09
15932;BME280;8065;49.520;11.284;2023-02-11T06:48:58;99183.63;;;3.85;72.67
15932;BME280;8065;49.520;11.284;2023-02-11T06:51:25;99183.97;;;3.77;72.74
15932;BME280;8065;49.520;11.284;2023-02-11T06:53:52;99197.13;;;3.77;72.24
15932;BME280;8065;49.520;11.284;2023-02-11T06:56:21;99203.88;;;3.73;72.88
15932;BME280;8065;49.520;11.284;2023-02-11T06:58:52;99202.25;;;3.72;73.01
15932;BME280;8065;49.520;11.284;2023-02-11T07:01:20;99209.00;;;3.68;72.62
15932;BME280;8065;49.520;11.284;2023-02-11T07:03:46;99211.19;;;3.59;73.28
15932;BME280;8065;49.520;11.284;2023-02-11T07:06:14;99198.50;;;3.68;72.83
15932;BME280;8065;49.520;11.284;2023-02-11T07:08:41;99198.03;;;3.71;73.19
15932;BME280;8065;49.520;11.284;2023-02-11T07:11:10;99202.84;;;3.74;73.00
15932;BME280;8065;49.520;11.284;2023-02-11T07:13:37;99214.72;;;3.76;72.27
15932;BME280;8065;49.520;11.284;2023-02-11T07:16:07;99206.50;;;3.73;71.97
15932;BME280;8065;49.520;11.284;2023-02-11T07:18:33;99204.91;;;3.72;72.31
15932;BME280;8065;49.520;11.284;2023-02-11T07:21:03;99210.03;;;3.78;72.59
15932;BME280;8065;49.520;11.284;2023-02-11T07:23:30;99206.72;;;3.83;72.24
15932;BME280;8065;49.520;11.284;2023-02-11T07:25:57;99206.16;;;3.69;72.70
15932;BME280;8065;49.520;11.284;2023-02-11T07:28:23;99204.31;;;3.70;73.20
15932;BME280;8065;49.520;11.284;2023-02-11T07:30:49;99198.72;;;3.78;73.70
15932;BME280;8065;49.520;11.284;2023-02-11T07:33:17;99195.16;;;3.84;74.05
15932;BME280;8065;49.520;11.284;2023-02-11T07:35:44;99198.00;;;3.94;72.82
15932;BME280;8065;49.520;11.284;2023-02-11T07:38:10;99200.25;;;4.14;72.23
15932;BME280;8065;49.520;11.284;2023-02-11T07:40:36;99187.63;;;4.27;73.02
15932;BME280;8065;49.520;11.284;2023-02-11T07:43:03;99187.66;;;4.44;72.42
15932;BME280;8065;49.520;11.284;2023-02-11T07:45:29;99194.75;;;4.44;72.42
15932;BME280;8065;49.520;11.284;2023-02-11T07:47:56;99185.97;;;4.67;71.44
15932;BME280;8065;49.520;11.284;2023-02-11T07:50:24;99202.06;;;4.70;72.58
15932;BME280;8065;49.520;11.284;2023-02-11T07:52:50;99221.75;;;4.96;71.34
15932;BME280;8065;49.520;11.284;2023-02-11T07:55:17;99227.09;;;4.84;72.57
15932;BME280;8065;49.520;11.284;2023-02-11T07:57:43;99221.78;;;5.13;71.56
15932;BME280;8065;49.520;11.284;2023-02-11T08:00:11;99212.66;;;5.37;71.66
15932;BME280;8065;49.520;11.284;2023-02-11T08:02:38;99224.28;;;5.75;70.24
15932;BME280;8065;49.520;11.284;2023-02-11T08:05:05;99234.81;;;6.13;69.12
15932;BME280;8065;49.520;11.284;2023-02-11T08:07:33;99233.41;;;6.28;68.44
15932;BME280;8065;49.520;11.284;2023-02-11T08:09:59;99229.22;;;6.32;69.13
15932;BME280;8065;49.520;11.284;2023-02-11T08:12:25;99220.88;;;6.40;68.70
15932;BME280;8065;49.520;11.284;2023-02-11T08:14:52;99222.97;;;6.38;68.02
15932;BME280;8065;49.520;11.284;2023-02-11T08:17:19;99221.31;;;6.32;68.07
15932;BME280;8065;49.520;11.284;2023-02-11T08:19:45;99220.22;;;6.28;67.79
15932;BME280;8065;49.520;11.284;2023-02-11T08:22:12;99212.16;;;6.17;68.36
15932;BME280;8065;49.520;11.284;2023-02-11T08:24:40;99208.72;;;6.17;68.32
15932;BME280;8065;49.520;11.284;2023-02-11T08:27:06;99224.31;;;6.18;68.42
15932;BME280;8065;49.520;11.284;2023-02-11T08:29:33;99217.69;;;6.16;68.58
15932;BME280;8065;49.520;11.284;2023-02-11T08:31:59;99210.09;;;6.19;69.10
15932;BME280;8065;49.520;11.284;2023-02-11T08:34:25;99206.41;;;6.20;69.10
15932;BME280;8065;49.520;11.284;2023-02-11T08:36:52;99202.41;;;6.18;68.91
15932;BME280;8065;49.520;11.284;2023-02-11T08:39:20;99205.28;;;6.16;69.39
15932;BME280;8065;49.520;11.284;2023-02-11T08:41:50;99204.69;;;6.09;69.45
15932;BME280;8065;49.520;11.284;2023-02-11T08:44:18;99198.91;;;6.12;68.89
15932;BME280;8065;49.520;11.284;2023-02-11T08:46:46;99200.38;;;6.25;68.98
15932;BME280;8065;49.520;11.284;2023-02-11T08:49:13;99216.34;;;6.13;68.95
15932;BME280;8065;49.520;11.284;2023-02-11T08:51:39;99216.47;;;6.23;69.00
15932;BME280;8065;49.520;11.284;2023-02-11T08:54:06;99207.06;;;6.33;68.68
15932;BME280;8065;49.520;11.284;2023-02-11T08:56:34;99201.59;;;6.39;68.95
15932;BME280;8065;49.520;11.284;2023-02-11T08:59:02;99198.72;;;6.41;68.71
15932;BME280;8065;49.520;11.284;2023-02-11T09:01:30;99200.38;;;6.47;68.67
15932;BME280;8065;49.520;11.284;2023-02-11T09:03:57;99202.56;;;6.55;68.49
15932;BME280;8065;49.520;11.284;2023-02-11T09:06:25;99204.25;;;6.66;68.03
15932;BME280;8065;49.520;11.284;2023-02-11T09:08:54;99198.09;;;6.82;67.67
15932;BME280;8065;49.520;11.284;2023-02-11T09:11:25;99191.94;;;7.09;67.79
15932;BME280;8065;49.520;11.284;2023-02-11T09:13:52;99194.09;;;7.12;66.88
15932;BME280;8065;49.520;11.284;2023-02-11T09:16:22;99193.03;;;7.13;66.94
15932;BME280;8065;49.520;11.284;2023-02-11T09:18:49;99200.28;;;7.28;67.21
15932;BME280;8065;49.520;11.284;2023-02-11T09:21:17;99195.53;;;7.30;66.69
15932;BME280;8065;49.520;11.284;2023-02-11T09:23:43;99199.06;;;7.40;66.31
15932;BME280;8065;49.520;11.284;2023-02-11T09:26:13;99201.75;;;7.45;66.02
15932;BME280;8065;49.520;11.284;2023-02-11T09:28:40;99204.13;;;7.47;66.72
15932;BME280;8065;49.520;11.284;2023-02-11T09:31:08;99209.16;;;7.48;66.65
15932;BME280;8065;49.520;11.284;2023-02-11T09:33:38;99202.38;;;7.63;66.30
15932;BME280;8065;49.520;11.284;2023-02-11T09:36:06;99207.34;;;7.54;66.48
15932;BME280;8065;49.520;11.284;2023-02-11T09:38:33;99202.91;;;7.65;66.75
15932;BME280;8065;49.520;11.284;2023-02-11T09:41:00;99207.19;;;7.71;66.26
15932;BME280;8065;49.520;11.284;2023-02-11T09:43:35;99212.22;;;7.72;66.54
15932;BME280;8065;49.520;11.284;2023-02-11T09:46:04;99209.91;;;7.91;65.83
15932;BME280;8065;49.520;11.284;2023-02-11T09:48:39;99210.78;;;8.02;66.48
15932;BME280;8065;49.520;11.284;2023-02-11T09:51:15;99211.13;;;8.20;66.75
15932;BME280;8065;49.520;11.284;2023-02-11T09:53:44;99204.31;;;8.35;66.42
15932;BME280;8065;49.520;11.284;2023-02-11T09:56:13;99207.03;;;8.60;65.51
15932;BME280;8065;49.520;11.284;2023-02-11T09:58:42;99206.50;;;8.73;65.97
15932;BME280;8065;49.520;11.284;2023-02-11T10:01:15;99206.81;;;8.97;64.45
15932;BME280;8065;49.520;11.284;2023-02-11T10:03:59;99207.88;;;9.06;64.37
15932;BME280;8065;49.520;11.284;2023-02-11T10:06:46;99206.81;;;9.07;64.26
15932;BME280;8065;49.520;11.284;2023-02-11T10:09:50;99204.16;;;9.07;64.30
15932;BME280;8065;49.520;11.284;2023-02-11T10:12:31;99215.56;;;8.93;65.40
15932;BME280;8065;49.520;11.284;2023-02-11T10:15:13;99207.06;;;8.91;65.07
15932;BME280;8065;49.520;11.284;2023-02-11T10:17:58;99207.09;;;9.06;64.97
15932;BME280;8065;49.520;11.284;2023-02-11T10:20:31;99209.16;;;8.78;65.68
15932;BME280;8065;49.520;11.284;2023-02-11T10:23:01;99218.97;;;8.78;66.16
15932;BME280;8065;49.520;11.284;2023-02-11T10:25:36;99220.84;;;8.93;65.96
15932;BME280;8065;49.520;11.284;2023-02-11T10:28:11;99218.72;;;8.84;65.99
15932;BME280;8065;49.520;11.284;2023-02-11T10:30:41;99221.38;;;8.79;66.17
15932;BME280;8065;49.520;11.284;2023-02-11T10:33:14;99215.53;;;8.87;65.70
15932;BME280;8065;49.520;11.284;2023-02-11T10:35:46;99208.13;;;8.84;65.42
15932;BME280;8065;49.520;11.284;2023-02-11T10:38:13;99208.13;;;8.95;65.84
15932;BME280;8065;49.520;11.284;2023-02-11T10:40:40;99210.78;;;8.90;65.60
15932;BME280;8065;49.520;11.284;2023-02-11T10:43:10;99201.25;;;8.99;65.69
15932;BME280;8065;49.520;11.284;2023-02-11T10:45:42;99199.66;;;8.98;65.32
15932;BME280;8065;49.520;11.284;2023-02-11T10:48:37;99208.66;;;8.92;66.97
15932;BME280;8065;49.520;11.284;2023-02-11T10:51:16;99202.03;;;9.04;65.28
15932;BME280;8065;49.520;11.284;2023-02-11T10:53:43;99199.66;;;9.03;66.26
15932;BME280;8065;49.520;11.284;2023-02-11T10:56:11;99200.19;;;9.20;65.58
15932;BME280;8065;49.520;11.284;2023-02-11T10:58:43;99197.53;;;9.15;66.54
15932;BME280;8065;49.520;11.284;2023-02-11T11:01:12;99186.94;;;9.30;66.36
15932;BME280;8065;49.520;11.284;2023-02-11T11:03:46;99195.94;;;9.29;67.10
15932;BME280;8065;49.520;11.284;2023-02-11T11:06:15;99179.50;;;9.37;65.98
15932;BME280;8065;49.520;11.284;2023-02-11T11:08:53;99172.03;;;9.49;66.57
15932;BME280;8065;49.520;11.284;2023-02-11T11:11:21;99192.16;;;9.56;66.10
15932;BME280;8065;49.520;11.284;2023-02-11T11:13:55;99203.31;;;9.63;66.55
15932;BME280;8065;49.520;11.284;2023-02-11T11:16:24;99208.06;;;9.66;67.15
15932;BME280;8065;49.520;11.284;2023-02-11T11:18:53;99204.91;;;9.64;66.37
15932;BME280;8065;49.520;11.284;2023-02-11T11:21:42;99209.41;;;9.63;66.85
15932;BME280;8065;49.520;11.284;2023-02-11T11:24:16;99213.44;;;9.50;66.83
15932;BME280;8065;49.520;11.284;2023-02-11T11:26:45;99206.25;;;9.56;67.24
15932;BME280;8065;49.520;11.284;2023-02-11T11:29:15;99202.00;;;9.55;67.17
15932;BME280;8065;49.520;11.284;2023-02-11T11:31:48;99200.63;;;9.68;67.53
15932;BME280;8065;49.520;11.284;2023-02-11T11:34:22;99197.69;;;9.79;66.57
15932;BME280;8065;49.520;11.284;2023-02-11T11:36:50;99198.75;;;9.83;66.85
15932;BME280;8065;49.520;11.284;2023-02-11T11:39:20;99197.38;;;9.96;65.80
15932;BME280;8065;49.520;11.284;2023-02-11T11:41:49;99200.31;;;9.95;65.47
15932;BME280;8065;49.520;11.284;2023-02-11T11:44:23;99191.03;;;9.92;66.01
15932;BME280;8065;49.520;11.284;2023-02-11T11:46:55;99192.06;;;10.01;65.28
15932;BME280;8065;49.520;11.284;2023-02-11T11:49:33;99191.28;;;9.96;66.04
15932;BME280;8065;49.520;11.284;2023-02-11T11:52:16;99185.13;;;10.10;65.42
15932;BME280;8065;49.520;11.284;2023-02-11T11:54:50;99187.75;;;10.21;66.12
15932;BME280;8065;49.520;11.284;2023-02-11T11:57:21;99191.19;;;10.16;66.10
15932;BME280;8065;49.520;11.284;2023-02-11T11:59:50;99182.97;;;10.12;65.83
15932;BME280;8065;49.520;11.284;2023-02-11T12:02:44;99195.19;;;10.18;65.45
15932;BME280;8065;49.520;11.284;2023-02-11T12:05:21;99184.06;;;10.11;65.67
15932;BME280;8065;49.520;11.284;2023-02-11T12:07:59;99181.94;;;10.08;65.43
15932;BME280;8065;49.520;11.284;2023-02-11T12:10:47;99181.41;;;10.11;65.35
15932;BME280;8065;49.520;11.284;2023-02-11T12:13:30;99182.44;;;10.21;65.31
15932;BME280;8065;49.520;11.284;2023-02-11T12:16:07;99183.75;;;10.28;65.76
15932;BME280;8065;49.520;11.284;2023-02-11T12:18:48;99184.56;;;10.24;65.71
15932;BME280;8065;49.520;11.284;2023-02-11T12:21:29;99179.78;;;10.15;65.89
15932;BME280;8065;49.520;11.284;2023-02-11T12:24:10;99177.13;;;10.21;65.38
15932;BME280;8065;49.520;11.284;2023-02-11T12:26:43;99179.25;;;10.13;65.38
15932;BME280;8065;49.520;11.284;2023-02-11T12:29:19;99172.34;;;10.12;65.35
15932;BME280;8065;49.520;11.284;2023-02-11T12:32:07;99168.09;;;10.22;65.51
15932;BME280;8065;49.520;11.284;2023-02-11T12:34:56;99158.75;;;10.29;65.85
15932;BME280;8065;49.520;11.284;2023-02-11T12:37:37;99160.09;;;10.27;65.23
15932;BME280;8065;49.520;11.284;2023-02-11T12:40:14;99149.78;;;10.20;66.08
15932;BME280;8065;49.520;11.284;2023-02-11T12:42:53;99149.47;;;10.27;65.52
15932;BME280;8065;49.520;11.284;2023-02-11T12:45:52;99149.16;;;10.38;66.19
15932;BME280;8065;49.520;11.284;2023-02-11T12:48:36;99154.66;;;10.47;65.67
15932;BME280;8065;49.520;11.284;2023-02-11T12:51:12;99165.84;;;10.44;65.26
15932;BME280;8065;49.520;11.284;2023-02-11T12:53:51;99165.66;;;10.30;65.28
15932;BME280;8065;49.520;11.284;2023-02-11T12:56:27;99158.22;;;10.32;65.70
15932;BME280;8065;49.520;11.284;2023-02-11T12:58:58;99154.25;;;10.30;65.68
15932;BME280;8065;49.520;11.284;2023-02-11T13:01:28;99160.59;;;10.34;65.40
15932;BME280;8065;49.520;11.284;2023-02-11T13:04:04;99158.47;;;10.36;64.89
15932;BME280;8065;49.520;11.284;2023-02-11T13:06:36;99148.91;;;10.35;65.32
15932;BME280;8065;49.520;11.284;2023-02-11T13:09:08;99139.91;;;10.26;64.89
15932;BME280;8065;49.520;11.284;2023-02-11T13:11:40;99147.34;;;10.29;64.90
15932;BME280;8065;49.520;11.284;2023-02-11T13:14:11;99138.34;;;10.25;64.96
15932;BME280;8065;49.520;11.284;2023-02-11T13:16:42;99140.47;;;10.23;64.94
15932;BME280;8065;49.520;11.284;2023-02-11T13:19:17;99139.91;;;10.31;64.34
15932;BME280;8065;49.520;11.284;2023-02-11T13:22:04;99138.78;;;10.37;64.95
15932;BME280;8065;49.520;11.284;2023-02-11T13:24:40;99137.66;;;10.43;64.51
15932;BME280;8065;49.520;11.284;2023-02-11T13:27:18;99141.88;;;10.49;64.28
15932;BME280;8065;49.520;11.284;2023-02-11T13:30:19;99142.44;;;10.46;64.75
15932;BME280;8065;49.520;11.284;2023-02-11T13:33:05;99141.34;;;10.52;64.13
15932;BME280;8065;49.520;11.284;2023-02-11T13:35:33;99136.56;;;10.49;64.20